createdAt,value
2022-08-08T00:01:18.778Z,51.22
2022-08-08T00:04:02.815Z,51.31
2022-08-08T00:06:42.998Z,51.47
2022-08-08T00:09:23.669Z,51.18
2022-08-08T00:12:09.445Z,51.11
2022-08-08T00:15:00.081Z,51.11
2022-08-08T00:18:03.804Z,51.42
2022-08-08T00:20:46.183Z,51.71
2022-08-08T00:23:28.537Z,51.50
2022-08-08T00:26:26.340Z,51.44
2022-08-08T00:29:10.072Z,51.26
2022-08-08T00:32:21.039Z,51.24
2022-08-08T00:35:20.086Z,51.68
2022-08-08T00:38:32.240Z,51.68
2022-08-08T00:46:01.272Z,51.48
2022-08-08T00:49:02.598Z,51.24
2022-08-08T00:51:54.923Z,50.90
2022-08-08T00:55:00.516Z,50.87
2022-08-08T00:58:14.666Z,51.59
2022-08-08T01:00:58.975Z,51.15
2022-08-08T01:04:04.491Z,50.97
2022-08-08T01:07:06.047Z,50.94
2022-08-08T01:10:15.976Z,51.14
2022-08-08T01:13:23.015Z,51.31
2022-08-08T01:16:48.714Z,51.28
2022-08-08T01:20:05.049Z,51.04
2022-08-08T01:24:02.742Z,51.51
2022-08-08T01:26:19.097Z,50.98
2022-08-08T01:29:24.890Z,51.20
2022-08-08T01:32:44.812Z,51.25
2022-08-08T01:36:16.838Z,51.33
2022-08-08T01:39:23.556Z,51.15
2022-08-08T01:42:08.180Z,51.09
2022-08-08T01:44:50.417Z,51.21
2022-08-08T01:48:13.984Z,51.04
2022-08-08T01:50:50.403Z,51.06
2022-08-08T01:55:16.692Z,51.80
2022-08-08T01:56:47.378Z,51.47
2022-08-08T02:00:02.437Z,51.89
2022-08-08T02:03:55.809Z,51.84
2022-08-08T02:06:32.986Z,51.72
2022-08-08T02:10:01.585Z,51.43
2022-08-08T02:12:30.025Z,52.01
2022-08-08T02:15:11.080Z,51.34
2022-08-08T02:17:55.791Z,51.55
2022-08-08T02:21:02.342Z,51.75
2022-08-08T02:23:35.692Z,51.89
2022-08-08T02:26:15.869Z,51.57
2022-08-08T02:29:18.906Z,51.84
2022-08-08T02:32:28.547Z,51.31
2022-08-08T02:35:35.692Z,51.61
2022-08-08T02:38:54.395Z,51.61
2022-08-08T02:42:04.662Z,52.28
2022-08-08T02:45:21.419Z,51.52
2022-08-08T02:48:45.291Z,52.47
2022-08-08T02:51:47.584Z,52.94
2022-08-08T02:55:02.301Z,53.10
2022-08-08T02:58:26.581Z,52.57
2022-08-08T03:01:50.893Z,53.34
2022-08-08T03:05:04.439Z,52.92
2022-08-08T03:08:30.747Z,53.12
2022-08-08T03:12:01.768Z,53.46
2022-08-08T03:15:59.843Z,52.84
2022-08-08T03:18:30.995Z,53.61
2022-08-08T03:21:09.664Z,53.60
2022-08-08T03:23:59.531Z,53.11
2022-08-08T03:26:42.870Z,53.32
2022-08-08T03:29:26.985Z,53.43
2022-08-08T03:32:32.073Z,53.79
2022-08-08T03:35:09.799Z,53.30
2022-08-08T03:38:53.660Z,53.29
2022-08-08T03:40:32.075Z,53.44
2022-08-08T03:43:16.711Z,53.45
2022-08-08T03:46:06.173Z,53.56
2022-08-08T03:49:56.585Z,53.42
2022-08-08T03:51:51.191Z,53.57
2022-08-08T03:54:41.564Z,52.77
2022-08-08T03:58:32.275Z,52.40
2022-08-08T04:00:18.155Z,53.58
2022-08-08T04:03:00.968Z,53.53
2022-08-08T04:05:36.304Z,53.35
2022-08-08T04:08:32.981Z,54.03
2022-08-08T04:11:10.656Z,53.81
2022-08-08T04:14:03.609Z,53.57
2022-08-08T04:16:40.367Z,54.34
2022-08-08T04:19:24.166Z,54.63
2022-08-08T04:22:01.027Z,54.32
2022-08-08T04:24:40.304Z,54.61
2022-08-08T04:27:42.740Z,54.97
2022-08-08T04:30:18.209Z,54.76
2022-08-08T04:32:54.304Z,54.86
2022-08-08T04:35:34.473Z,55.08
2022-08-08T04:38:21.145Z,55.13
2022-08-08T04:40:54.295Z,55.39
2022-08-08T04:43:31.999Z,55.49
2022-08-08T04:46:23.507Z,55.08
2022-08-08T04:48:57.110Z,55.74
2022-08-08T04:51:54.836Z,55.93
2022-08-08T04:54:39.805Z,54.84
2022-08-08T04:57:12.736Z,54.99
2022-08-08T04:59:44.341Z,55.64
2022-08-08T05:02:20.276Z,55.59
2022-08-08T05:04:54.707Z,55.82
2022-08-08T05:07:37.842Z,55.42
2022-08-08T05:10:16.973Z,55.44
2022-08-08T05:13:01.897Z,55.45
2022-08-08T05:16:48.042Z,54.83
2022-08-08T05:18:34.237Z,55.34
2022-08-08T05:21:11.342Z,55.28
2022-08-08T05:23:46.420Z,55.17
2022-08-08T05:26:22.085Z,54.38
2022-08-08T05:29:06.206Z,54.98
2022-08-08T05:32:03.632Z,54.81
2022-08-08T05:34:38.755Z,55.58
2022-08-08T05:37:17.251Z,55.50
2022-08-08T05:39:55.355Z,55.15
2022-08-08T05:42:37.932Z,55.10
2022-08-08T05:45:25.701Z,54.95
2022-08-08T05:48:08.878Z,55.07
2022-08-08T05:50:41.744Z,55.54
2022-08-08T05:53:53.839Z,56.23
2022-08-08T05:56:11.530Z,55.62
2022-08-08T05:58:53.649Z,55.99
2022-08-08T06:01:55.638Z,56.34
2022-08-08T06:04:24.398Z,56.57
2022-08-08T06:07:04.834Z,56.25
2022-08-08T06:09:58.650Z,55.96
2022-08-08T06:12:31.540Z,56.55
2022-08-08T06:15:08.396Z,57.17
2022-08-08T06:17:51.138Z,56.92
2022-08-08T06:20:37.556Z,57.62
2022-08-08T06:23:13.127Z,57.10
2022-08-08T06:26:38.413Z,57.52
2022-08-08T06:28:56.992Z,56.99
2022-08-08T06:32:09.422Z,57.77
2022-08-08T06:34:31.585Z,57.45
2022-08-08T06:37:24.386Z,57.68
2022-08-08T06:40:07.328Z,57.67
2022-08-08T06:42:53.959Z,57.42
2022-08-08T06:45:28.477Z,57.17
2022-08-08T06:48:02.316Z,57.42
2022-08-08T06:50:40.119Z,57.52
2022-08-08T06:53:17.341Z,57.38
2022-08-08T06:56:02.260Z,57.55
2022-08-08T06:58:37.091Z,58.03
2022-08-08T07:02:16.413Z,58.21
2022-08-08T07:04:36.924Z,57.90
2022-08-08T07:07:10.373Z,57.63
2022-08-08T07:10:00.020Z,58.04
2022-08-08T07:12:48.052Z,57.21
2022-08-08T07:16:05.035Z,57.21
2022-08-08T07:18:55.848Z,56.99
2022-08-08T07:21:35.186Z,57.01
2022-08-08T07:24:09.849Z,57.28
2022-08-08T07:27:04.841Z,56.95
2022-08-08T07:30:02.452Z,56.91
2022-08-08T07:32:36.757Z,57.04
2022-08-08T07:35:08.921Z,57.77
2022-08-08T07:37:56.416Z,58.46
2022-08-08T07:40:45.910Z,58.90
2022-08-08T07:43:37.111Z,58.58
2022-08-08T07:46:23.148Z,57.56
2022-08-08T07:48:57.191Z,56.06
2022-08-08T07:51:45.070Z,55.83
2022-08-08T07:54:27.551Z,55.79
2022-08-08T07:57:17.126Z,54.30
2022-08-08T08:00:00.892Z,53.75
2022-08-08T08:02:42.437Z,54.41
2022-08-08T08:05:33.505Z,54.03
2022-08-08T08:08:20.519Z,52.77
2022-08-08T08:10:55.342Z,51.70
2022-08-08T08:13:42.592Z,51.79
2022-08-08T08:16:32.618Z,52.17
2022-08-08T08:19:08.031Z,51.19
2022-08-08T08:21:56.980Z,51.05
2022-08-08T08:24:42.858Z,51.69
2022-08-08T08:27:14.645Z,52.12
2022-08-08T08:29:53.471Z,53.07
2022-08-08T08:32:35.805Z,52.49
2022-08-08T08:35:18.125Z,52.11
2022-08-08T08:38:17.929Z,51.08
2022-08-08T08:41:03.207Z,51.28
2022-08-08T08:43:38.242Z,51.65
2022-08-08T08:46:18.969Z,51.93
2022-08-08T08:48:52.730Z,52.45
2022-08-08T08:51:29.018Z,52.32
2022-08-08T08:54:04.737Z,52.53
2022-08-08T08:56:38.598Z,52.17
2022-08-08T08:59:17.941Z,52.27
2022-08-08T09:01:56.745Z,52.34
2022-08-08T09:04:38.655Z,52.00
2022-08-08T09:07:24.166Z,51.58
2022-08-08T09:10:18.072Z,51.23
2022-08-08T09:12:53.302Z,51.25
2022-08-08T09:15:41.482Z,51.52
2022-08-08T09:18:13.478Z,49.97
2022-08-08T09:21:59.112Z,50.46
2022-08-08T09:23:40.792Z,50.38
2022-08-08T09:26:27.250Z,50.44
2022-08-08T09:29:08.241Z,50.58
2022-08-08T09:31:56.018Z,50.59
2022-08-08T09:34:37.591Z,50.38
2022-08-08T09:37:57.787Z,50.04
2022-08-08T09:40:14.430Z,49.87
2022-08-08T09:42:52.186Z,50.25
2022-08-08T09:46:00.750Z,50.13
2022-08-08T09:48:27.021Z,50.04
2022-08-08T09:51:06.126Z,49.38
2022-08-08T09:53:56.422Z,49.70
2022-08-08T09:56:41.013Z,49.86
2022-08-08T09:59:50.242Z,49.64
2022-08-08T10:02:15.767Z,49.17
2022-08-08T10:04:47.815Z,49.30
2022-08-08T10:07:19.924Z,48.96
2022-08-08T10:09:59.646Z,49.53
2022-08-08T10:12:54.350Z,49.90
2022-08-08T10:15:28.586Z,49.65
2022-08-08T10:18:09.241Z,49.53
2022-08-08T10:20:57.646Z,49.85
2022-08-08T10:23:47.098Z,48.84
2022-08-08T10:26:25.734Z,48.90
2022-08-08T10:29:08.338Z,48.25
2022-08-08T10:32:00.573Z,48.15
2022-08-08T10:34:30.886Z,49.57
2022-08-08T10:37:01.579Z,49.17
2022-08-08T10:39:54.446Z,49.34
2022-08-08T10:42:27.477Z,49.39
2022-08-08T10:45:09.581Z,49.62
2022-08-08T10:47:43.764Z,48.36
2022-08-08T10:50:15.784Z,47.88
2022-08-08T10:52:46.493Z,48.18
2022-08-08T10:55:39.459Z,48.18
2022-08-08T10:58:10.704Z,49.04
2022-08-08T11:01:02.920Z,49.56
2022-08-08T11:04:00.539Z,49.58
2022-08-08T11:06:36.639Z,49.87
2022-08-08T11:09:19.960Z,49.81
2022-08-08T11:12:05.832Z,49.20
2022-08-08T11:14:58.061Z,48.51
2022-08-08T11:18:01.297Z,48.14
2022-08-08T11:20:27.917Z,48.33
2022-08-08T11:22:59.074Z,48.42
2022-08-08T11:25:53.221Z,48.53
2022-08-08T11:28:29.840Z,48.24
2022-08-08T11:31:04.907Z,47.77
2022-08-08T11:33:52.447Z,47.97
2022-08-08T11:36:27.702Z,47.99
2022-08-08T11:38:59.765Z,47.53
2022-08-08T11:41:33.939Z,47.24
2022-08-08T11:44:07.104Z,47.61
2022-08-08T11:46:39.897Z,47.47
2022-08-08T11:49:17.465Z,46.87
2022-08-08T11:51:50.311Z,46.37
2022-08-08T11:54:38.066Z,46.01
2022-08-08T11:57:27.237Z,46.38
2022-08-08T12:00:05.551Z,46.98
2022-08-08T12:02:55.712Z,47.32
2022-08-08T12:05:38.856Z,46.66
2022-08-08T12:08:11.293Z,46.73
2022-08-08T12:10:49.247Z,46.15
2022-08-08T12:13:38.491Z,46.78
2022-08-08T12:16:18.635Z,46.65
2022-08-08T12:18:51.465Z,45.85
2022-08-08T12:21:59.312Z,46.02
2022-08-08T12:24:27.944Z,45.62
2022-08-08T12:26:59.348Z,45.34
2022-08-08T12:29:42.181Z,46.24
2022-08-08T12:32:17.044Z,46.50
2022-08-08T12:35:13.412Z,46.53
2022-08-08T12:38:02.610Z,45.86
2022-08-08T12:40:54.289Z,45.59
2022-08-08T12:43:43.587Z,45.23
2022-08-08T12:46:28.668Z,44.62
2022-08-08T12:52:00.283Z,44.51
2022-08-08T12:54:35.980Z,44.49
2022-08-08T12:57:17.078Z,44.91
2022-08-08T13:00:04.991Z,45.31
2022-08-08T13:02:37.105Z,45.53
2022-08-08T13:05:26.915Z,45.85
2022-08-08T13:08:16.144Z,46.36
2022-08-08T13:10:58.050Z,46.49
2022-08-08T13:13:37.664Z,46.28
2022-08-08T13:16:25.460Z,45.54
2022-08-08T13:19:01.694Z,45.88
2022-08-08T13:21:53.197Z,46.89
2022-08-08T13:24:46.430Z,46.54
2022-08-08T13:27:35.912Z,46.07
2022-08-08T13:30:10.626Z,45.85
2022-08-08T13:32:42.227Z,45.81
2022-08-08T13:35:24.834Z,43.10
2022-08-08T13:38:06.901Z,42.92
2022-08-08T13:40:40.930Z,42.26
2022-08-08T13:43:16.273Z,41.46
2022-08-08T13:45:48.360Z,41.43
2022-08-08T13:48:25.217Z,42.56
2022-08-08T13:51:25.084Z,43.89
2022-08-08T13:54:00.229Z,43.65
2022-08-08T13:56:44.847Z,43.24
2022-08-08T13:59:40.832Z,43.17
2022-08-08T14:02:22.464Z,42.69
2022-08-08T14:05:20.260Z,42.98
2022-08-08T14:08:01.641Z,42.53
2022-08-08T14:10:39.518Z,42.25
2022-08-08T14:13:20.903Z,42.61
2022-08-08T14:16:16.686Z,42.86
2022-08-08T14:18:54.790Z,42.87
2022-08-08T14:21:40.738Z,43.49
2022-08-08T14:24:34.435Z,43.80
2022-08-08T14:27:07.592Z,43.27
2022-08-08T14:29:39.552Z,42.70
2022-08-08T14:32:22.179Z,43.97
2022-08-08T14:35:04.529Z,43.66
2022-08-08T14:37:57.276Z,43.19
2022-08-08T14:40:31.450Z,43.27
2022-08-08T14:43:22.175Z,43.26
2022-08-08T14:46:02.291Z,43.50
2022-08-08T14:48:57.129Z,43.93
2022-08-08T14:51:51.852Z,43.29
2022-08-08T14:54:29.235Z,42.24
2022-08-08T14:57:04.183Z,41.83
2022-08-08T14:59:44.483Z,41.67
2022-08-08T15:02:30.887Z,41.91
2022-08-08T15:05:11.406Z,41.40
2022-08-08T15:07:44.635Z,40.78
2022-08-08T15:10:31.151Z,40.50
2022-08-08T15:13:08.840Z,39.91
2022-08-08T15:16:02.393Z,39.65
2022-08-08T15:18:35.890Z,39.84
2022-08-08T15:21:08.882Z,39.42
2022-08-08T15:23:39.759Z,39.52
2022-08-08T15:26:13.067Z,39.34
2022-08-08T15:28:41.673Z,39.51
2022-08-08T15:31:10.632Z,39.94
2022-08-08T15:33:58.902Z,40.04
2022-08-08T15:36:31.438Z,39.32
2022-08-08T15:38:59.763Z,39.57
2022-08-08T15:41:37.085Z,39.59
2022-08-08T15:44:13.859Z,39.81
2022-08-08T15:46:45.526Z,39.82
2022-08-08T15:49:21.073Z,40.48
2022-08-08T15:51:55.807Z,41.43
2022-08-08T15:54:38.158Z,42.12
2022-08-08T15:57:09.382Z,42.23
2022-08-08T16:00:05.687Z,42.32
2022-08-08T16:02:30.564Z,41.96
2022-08-08T16:04:59.563Z,41.49
2022-08-08T16:07:50.825Z,41.14
2022-08-08T16:13:11.481Z,39.83
2022-08-08T16:13:30.733Z,39.49
2022-08-08T16:15:59.756Z,39.36
2022-08-08T16:18:38.180Z,38.70
2022-08-08T16:21:26.463Z,38.99
2022-08-08T16:23:57.244Z,38.56
2022-08-08T16:26:34.745Z,38.52
2022-08-08T16:29:07.911Z,37.97
2022-08-08T16:31:40.507Z,37.75
2022-08-08T16:34:10.612Z,38.21
2022-08-08T16:36:40.777Z,38.30
2022-08-08T16:39:17.029Z,38.63
2022-08-08T16:42:01.821Z,38.78
2022-08-08T16:44:33.867Z,39.36
2022-08-08T16:47:16.424Z,39.70
2022-08-08T16:49:49.527Z,40.06
2022-08-08T16:55:06.176Z,40.31
2022-08-08T16:55:33.943Z,40.63
2022-08-08T16:58:14.834Z,40.47
2022-08-08T17:00:51.773Z,41.03
2022-08-08T17:03:25.322Z,41.87
2022-08-08T17:06:36.061Z,42.28
2022-08-08T17:09:05.718Z,42.52
2022-08-08T17:11:48.252Z,42.16
2022-08-08T17:14:27.179Z,41.97
2022-08-08T17:17:01.676Z,42.51
2022-08-08T17:19:37.468Z,42.84
2022-08-08T17:22:10.776Z,42.80
2022-08-08T17:24:43.163Z,43.64
2022-08-08T17:27:29.123Z,43.32
2022-08-08T17:30:27.630Z,43.86
2022-08-08T17:34:49.365Z,43.73
2022-08-08T17:35:55.875Z,43.53
2022-08-08T17:38:43.024Z,43.45
2022-08-08T17:41:15.043Z,43.41
2022-08-08T17:44:01.190Z,43.79
2022-08-08T17:46:39.290Z,43.66
2022-08-08T17:49:10.135Z,44.13
2022-08-08T17:51:43.676Z,43.86
2022-08-08T17:54:22.425Z,43.91
2022-08-08T17:56:54.176Z,43.81
2022-08-08T17:59:30.497Z,43.29
2022-08-08T18:02:04.874Z,43.30
2022-08-08T18:04:42.568Z,43.41
2022-08-08T18:08:02.978Z,43.88
2022-08-08T18:10:08.693Z,43.93
2022-08-08T18:12:37.434Z,43.60
2022-08-08T18:15:09.811Z,43.71
2022-08-08T18:18:05.039Z,43.61
2022-08-08T18:20:36.680Z,44.25
2022-08-08T18:23:14.740Z,44.35
2022-08-08T18:25:44.394Z,44.58
2022-08-08T18:28:14.307Z,44.31
2022-08-08T18:30:44.372Z,44.37
2022-08-08T18:33:36.420Z,44.65
2022-08-08T18:36:03.677Z,44.78
2022-08-08T18:38:32.423Z,44.80
2022-08-08T18:41:04.322Z,44.93
2022-08-08T18:43:38.002Z,44.81
2022-08-08T18:46:54.478Z,45.25
2022-08-08T18:49:04.197Z,44.88
2022-08-08T18:51:53.878Z,44.89
2022-08-08T18:54:27.375Z,44.85
2022-08-08T18:56:58.888Z,45.23
2022-08-08T18:59:34.608Z,45.43
2022-08-08T19:02:28.410Z,45.46
2022-08-08T19:04:57.822Z,45.63
2022-08-08T19:07:30.013Z,45.53
2022-08-08T19:10:14.759Z,45.53
2022-08-08T19:12:52.994Z,45.69
2022-08-08T19:15:23.883Z,45.83
2022-08-08T19:18:31.757Z,45.98
2022-08-08T19:20:49.189Z,45.69
2022-08-08T19:23:18.733Z,45.58
2022-08-08T19:26:26.958Z,45.61
2022-08-08T19:28:45.433Z,45.58
2022-08-08T19:31:17.036Z,45.59
2022-08-08T19:34:05.082Z,45.45
2022-08-08T19:36:40.771Z,45.54
2022-08-08T19:39:14.585Z,45.68
2022-08-08T19:41:44.391Z,45.68
2022-08-08T19:44:42.410Z,45.85
2022-08-08T19:47:01.567Z,45.86
2022-08-08T19:49:37.886Z,45.99
2022-08-08T19:52:10.505Z,45.78
2022-08-08T19:54:55.404Z,45.96
2022-08-08T19:57:48.604Z,45.84
2022-08-08T20:00:29.217Z,45.99
2022-08-08T20:03:15.161Z,45.81
2022-08-08T20:06:14.931Z,45.94
2022-08-08T20:08:48.142Z,45.91
2022-08-08T20:11:22.002Z,46.43
2022-08-08T20:14:12.970Z,45.60
2022-08-08T20:16:41.243Z,45.86
2022-08-08T20:19:12.177Z,46.28
2022-08-08T20:21:43.875Z,46.02
2022-08-08T20:24:15.675Z,46.22
2022-08-08T20:26:49.138Z,46.27
2022-08-08T20:29:18.324Z,45.93
2022-08-08T20:32:07.336Z,46.06
2022-08-08T20:34:36.708Z,46.57
2022-08-08T20:37:17.734Z,46.20
2022-08-08T20:39:51.910Z,46.30
2022-08-08T20:42:29.259Z,46.19
2022-08-08T20:45:02.034Z,46.21
2022-08-08T20:47:36.424Z,46.14
2022-08-08T20:50:10.086Z,46.33
2022-08-08T20:52:44.775Z,46.39
2022-08-08T20:55:22.892Z,46.19
2022-08-08T20:57:57.805Z,46.18
2022-08-08T21:00:28.050Z,46.20
2022-08-08T21:02:56.618Z,46.11
2022-08-08T21:05:31.825Z,46.08
2022-08-08T21:08:37.213Z,46.20
2022-08-08T21:10:53.525Z,45.90
2022-08-08T21:13:23.476Z,45.96
2022-08-08T21:16:18.277Z,45.96
2022-08-08T21:18:59.214Z,45.93
2022-08-08T21:21:41.060Z,46.02
2022-08-08T21:24:24.120Z,46.06
2022-08-08T21:26:58.870Z,45.95
2022-08-08T21:30:02.933Z,45.95
2022-08-08T21:32:25.086Z,45.92
2022-08-08T21:36:13.726Z,46.09
2022-08-08T21:37:55.649Z,46.16
2022-08-08T21:40:36.368Z,45.90
2022-08-08T21:43:08.219Z,46.09
2022-08-08T21:48:00.982Z,45.90
2022-08-08T21:48:40.310Z,46.17
2022-08-08T21:51:14.783Z,45.97
2022-08-08T21:54:34.917Z,45.94
2022-08-08T21:56:43.332Z,45.73
2022-08-08T21:59:24.227Z,45.73
2022-08-08T22:02:23.442Z,45.98
2022-08-08T22:04:55.654Z,46.05
2022-08-08T22:07:39.804Z,45.85
2022-08-08T22:10:18.181Z,45.69
2022-08-08T22:13:18.848Z,45.89
2022-08-08T22:15:59.439Z,45.92
2022-08-08T22:18:32.564Z,45.88
2022-08-08T22:21:14.097Z,45.99
2022-08-08T22:23:51.621Z,46.02
2022-08-08T22:26:30.932Z,45.73
2022-08-08T22:29:56.877Z,45.65
2022-08-08T22:31:58.778Z,45.74
2022-08-08T22:34:39.946Z,45.67
2022-08-08T22:37:14.837Z,45.48
2022-08-08T22:40:01.160Z,46.00
2022-08-08T22:42:52.520Z,45.88
2022-08-08T22:45:28.590Z,45.85
2022-08-08T22:47:59.040Z,45.70
2022-08-08T22:50:29.194Z,45.85
2022-08-08T22:54:28.439Z,45.79
2022-08-08T22:55:59.190Z,45.68
2022-08-08T22:58:34.405Z,45.82
2022-08-08T23:01:26.685Z,45.59
2022-08-08T23:04:00.416Z,45.58
2022-08-08T23:06:35.066Z,45.72
2022-08-08T23:09:09.607Z,46.04
2022-08-08T23:12:27.683Z,45.85
2022-08-08T23:14:30.812Z,45.83
2022-08-08T23:17:04.394Z,45.57
2022-08-08T23:19:36.291Z,45.56
2022-08-08T23:22:15.021Z,45.45
2022-08-08T23:24:49.247Z,45.53
2022-08-08T23:27:39.125Z,45.92
2022-08-08T23:30:12.941Z,46.65
2022-08-08T23:32:45.924Z,46.32
2022-08-08T23:35:17.442Z,47.01
2022-08-08T23:38:01.683Z,47.57
2022-08-08T23:40:32.051Z,48.01
2022-08-08T23:43:02.823Z,48.47
2022-08-08T23:48:59.633Z,48.56
2022-08-08T23:49:02.738Z,48.48
2022-08-08T23:51:41.655Z,48.51
2022-08-08T23:54:43.600Z,49.03
2022-08-08T23:56:58.626Z,49.12
2022-08-08T23:59:28.718Z,48.93
